Country
Station

 

Weather  for  New Haven, Tweed-New Haven Airport  -  United States    United States

  
-1 °C (30 °F)
    
 
 

Current METAR for New Haven, Tweed-New Haven Airport is :

KHVN 121453Z 32005KT 10SM CLR M01/M12 A3073 RMK AO2 SLP405 T10061117 51015 $

 

This is a report for New Haven, Tweed-New Haven Airport - United States.
 
The report was made 6 minutes ago, at 14:53 UTC .
The wind was blowing at a speed of 2.6 meters per second (5.8 miles per hour) from northwest (320°).
 
The temperature was -1 °C (30 °F), with a dew-point at -12 °C (10 °F).
The temperature felt like -4 °C (24 °F).
 
The atmospheric pressure was 1041 hPa (30.73 inHg).
The relative humidity was 42.9%.
 
The sky was clear.
 
The overall visibility was 16.1 kilometers (10.0 miles).
 

 
 
 
 

Country :   A   B   C   D   E   F   G   H   I   J   K   L   M   N   O   P   Q   R   S   T   U   V   W   Y   Z

 

Site Info  |  Disclaimer  |  Credits  |  Privacy
Contact us  |  Add to favorites
© 2013-2019 METARs - All rights reserved